sensor_id;sensor_type;location;lat;lon;timestamp;pressure;altitude;pressure_sealevel;temperature
23992;BMP280;12205;50.600;4.608;2022-11-25T00:01:20;99299.63;;;11.50
23992;BMP280;12205;50.600;4.608;2022-11-25T00:03:50;99314.94;;;11.53
23992;BMP280;12205;50.600;4.608;2022-11-25T00:06:21;99313.38;;;11.56
23992;BMP280;12205;50.600;4.608;2022-11-25T00:08:53;99308.41;;;11.54
23992;BMP280;12205;50.600;4.608;2022-11-25T00:11:20;99313.41;;;11.49
23992;BMP280;12205;50.600;4.608;2022-11-25T00:13:48;99321.78;;;11.54
23992;BMP280;12205;50.600;4.608;2022-11-25T00:16:18;99326.78;;;11.49
23992;BMP280;12205;50.600;4.608;2022-11-25T00:18:47;99305.75;;;11.51
23992;BMP280;12205;50.600;4.608;2022-11-25T00:21:19;99314.13;;;11.56
23992;BMP280;12205;50.600;4.608;2022-11-25T00:23:50;99312.59;;;11.55
23992;BMP280;12205;50.600;4.608;2022-11-25T00:26:19;99314.53;;;11.59
23992;BMP280;12205;50.600;4.608;2022-11-25T00:28:48;99323.31;;;11.55
23992;BMP280;12205;50.600;4.608;2022-11-25T00:31:17;99324.44;;;11.47
23992;BMP280;12205;50.600;4.608;2022-11-25T00:33:45;99327.13;;;11.47
23992;BMP280;12205;50.600;4.608;2022-11-25T00:36:19;99328.66;;;11.48
23992;BMP280;12205;50.600;4.608;2022-11-25T00:38:51;99322.56;;;11.44
23992;BMP280;12205;50.600;4.608;2022-11-25T00:41:19;99321.78;;;11.47
23992;BMP280;12205;50.600;4.608;2022-11-25T00:44:04;99322.56;;;11.44
23992;BMP280;12205;50.600;4.608;2022-11-25T00:46:49;99324.06;;;11.42
23992;BMP280;12205;50.600;4.608;2022-11-25T00:49:16;99327.91;;;11.41
23992;BMP280;12205;50.600;4.608;2022-11-25T00:51:44;99339.03;;;11.46
23992;BMP280;12205;50.600;4.608;2022-11-25T00:54:12;99339.03;;;11.46
23992;BMP280;12205;50.600;4.608;2022-11-25T00:56:40;99337.09;;;11.50
23992;BMP280;12205;50.600;4.608;2022-11-25T00:59:07;99342.81;;;11.52
23992;BMP280;12205;50.600;4.608;2022-11-25T01:01:35;99343.19;;;11.54
23992;BMP280;12205;50.600;4.608;2022-11-25T01:04:03;99338.59;;;11.55
23992;BMP280;12205;50.600;4.608;2022-11-25T01:06:32;99327.13;;;11.47
23992;BMP280;12205;50.600;4.608;2022-11-25T01:09:01;99326.38;;;11.50
23992;BMP280;12205;50.600;4.608;2022-11-25T01:11:28;99325.63;;;11.53
23992;BMP280;12205;50.600;4.608;2022-11-25T01:13:55;99326.41;;;11.47
23992;BMP280;12205;50.600;4.608;2022-11-25T01:16:24;99319.50;;;11.49
23992;BMP280;12205;50.600;4.608;2022-11-25T01:18:51;99322.56;;;11.44
23992;BMP280;12205;50.600;4.608;2022-11-25T01:21:21;99315.66;;;11.43
23992;BMP280;12205;50.600;4.608;2022-11-25T01:23:49;99307.66;;;11.36
23992;BMP280;12205;50.600;4.608;2022-11-25T01:26:20;99294.66;;;11.34
23992;BMP280;12205;50.600;4.608;2022-11-25T01:28:53;99275.16;;;11.27
23992;BMP280;12205;50.600;4.608;2022-11-25T01:31:24;99253.38;;;11.17
23992;BMP280;12205;50.600;4.608;2022-11-25T01:33:55;99218.59;;;11.03
23992;BMP280;12205;50.600;4.608;2022-11-25T01:36:23;99205.66;;;11.05
23992;BMP280;12205;50.600;4.608;2022-11-25T01:38:53;99196.47;;;10.99
23992;BMP280;12205;50.600;4.608;2022-11-25T01:41:25;99179.66;;;10.95
23992;BMP280;12205;50.600;4.608;2022-11-25T01:44:11;99156.00;;;10.90
23992;BMP280;12205;50.600;4.608;2022-11-25T01:46:55;99146.41;;;10.85
23992;BMP280;12205;50.600;4.608;2022-11-25T01:49:31;99127.72;;;10.74
23992;BMP280;12205;50.600;4.608;2022-11-25T01:52:06;99110.16;;;10.84
23992;BMP280;12205;50.600;4.608;2022-11-25T01:54:39;99100.22;;;10.85
23992;BMP280;12205;50.600;4.608;2022-11-25T01:57:14;99112.47;;;10.82
23992;BMP280;12205;50.600;4.608;2022-11-25T01:59:48;99113.19;;;10.75
23992;BMP280;12205;50.600;4.608;2022-11-25T02:02:17;99108.66;;;10.72
23992;BMP280;12205;50.600;4.608;2022-11-25T02:04:47;99090.28;;;10.67
23992;BMP280;12205;50.600;4.608;2022-11-25T02:07:23;99078.13;;;10.73
23992;BMP280;12205;50.600;4.608;2022-11-25T02:09:52;99062.44;;;10.75
23992;BMP280;12205;50.600;4.608;2022-11-25T02:12:24;99078.13;;;10.73
23992;BMP280;12205;50.600;4.608;2022-11-25T02:14:54;99085.72;;;10.75
23992;BMP280;12205;50.600;4.608;2022-11-25T02:17:23;99091.81;;;10.75
23992;BMP280;12205;50.600;4.608;2022-11-25T02:19:59;99079.63;;;10.81
23992;BMP280;12205;50.600;4.608;2022-11-25T02:22:50;99064.34;;;10.86
23992;BMP280;12205;50.600;4.608;2022-11-25T02:25:24;99052.13;;;10.85
23992;BMP280;12205;50.600;4.608;2022-11-25T02:27:56;99057.47;;;10.85
23992;BMP280;12205;50.600;4.608;2022-11-25T02:30:24;99070.47;;;10.82
23992;BMP280;12205;50.600;4.608;2022-11-25T02:32:52;99089.53;;;10.85
23992;BMP280;12205;50.600;4.608;2022-11-25T02:35:32;99111.72;;;10.81
23992;BMP280;12205;50.600;4.608;2022-11-25T02:38:06;99133.44;;;10.76
23992;BMP280;12205;50.600;4.608;2022-11-25T02:40:43;99125.81;;;10.75
23992;BMP280;12205;50.600;4.608;2022-11-25T02:43:12;99126.97;;;10.74
23992;BMP280;12205;50.600;4.608;2022-11-25T02:45:49;99143.75;;;10.74
23992;BMP280;12205;50.600;4.608;2022-11-25T02:48:19;99133.06;;;10.71
23992;BMP280;12205;50.600;4.608;2022-11-25T02:50:47;99126.19;;;10.59
23992;BMP280;12205;50.600;4.608;2022-11-25T02:53:14;99138.41;;;10.56
23992;BMP280;12205;50.600;4.608;2022-11-25T02:55:43;99147.97;;;10.54
23992;BMP280;12205;50.600;4.608;2022-11-25T02:58:11;99159.78;;;10.53
23992;BMP280;12205;50.600;4.608;2022-11-25T03:00:39;99153.69;;;10.56
23992;BMP280;12205;50.600;4.608;2022-11-25T03:03:08;99165.88;;;10.53
23992;BMP280;12205;50.600;4.608;2022-11-25T03:05:35;99165.13;;;10.53
23992;BMP280;12205;50.600;4.608;2022-11-25T03:08:04;99168.16;;;10.44
23992;BMP280;12205;50.600;4.608;2022-11-25T03:10:36;99180.38;;;10.41
23992;BMP280;12205;50.600;4.608;2022-11-25T03:13:06;99188.00;;;10.39
23992;BMP280;12205;50.600;4.608;2022-11-25T03:15:34;99184.94;;;10.37
23992;BMP280;12205;50.600;4.608;2022-11-25T03:18:03;99187.22;;;10.35
23992;BMP280;12205;50.600;4.608;2022-11-25T03:20:31;99181.09;;;10.24
23992;BMP280;12205;50.600;4.608;2022-11-25T03:22:58;99178.78;;;10.26
23992;BMP280;12205;50.600;4.608;2022-11-25T03:25:25;99191.78;;;10.24
23992;BMP280;12205;50.600;4.608;2022-11-25T03:27:54;99186.44;;;10.24
23992;BMP280;12205;50.600;4.608;2022-11-25T03:30:25;99194.03;;;10.22
23992;BMP280;12205;50.600;4.608;2022-11-25T03:32:56;99202.81;;;10.19
23992;BMP280;12205;50.600;4.608;2022-11-25T03:35:25;99206.22;;;10.16
23992;BMP280;12205;50.600;4.608;2022-11-25T03:37:52;99204.69;;;10.11
23992;BMP280;12205;50.600;4.608;2022-11-25T03:40:20;99210.75;;;10.08
23992;BMP280;12205;50.600;4.608;2022-11-25T03:42:48;99230.63;;;10.11
23992;BMP280;12205;50.600;4.608;2022-11-25T03:45:16;99233.25;;;10.03
23992;BMP280;12205;50.600;4.608;2022-11-25T03:47:47;99239.34;;;10.00
23992;BMP280;12205;50.600;4.608;2022-11-25T03:50:14;99239.72;;;9.95
23992;BMP280;12205;50.600;4.608;2022-11-25T03:52:44;99243.91;;;9.96
23992;BMP280;12205;50.600;4.608;2022-11-25T03:55:12;99247.28;;;9.89
23992;BMP280;12205;50.600;4.608;2022-11-25T03:57:41;99238.91;;;9.87
23992;BMP280;12205;50.600;4.608;2022-11-25T04:00:10;99242.66;;;9.76
23992;BMP280;12205;50.600;4.608;2022-11-25T04:02:55;99235.72;;;9.71
23992;BMP280;12205;50.600;4.608;2022-11-25T04:05:22;99237.22;;;9.65
23992;BMP280;12205;50.600;4.608;2022-11-25T04:07:49;99228.81;;;9.63
23992;BMP280;12205;50.600;4.608;2022-11-25T04:10:17;99242.56;;;9.61
23992;BMP280;12205;50.600;4.608;2022-11-25T04:12:44;99235.69;;;9.60
23992;BMP280;12205;50.600;4.608;2022-11-25T04:15:18;99259.28;;;9.58
23992;BMP280;12205;50.600;4.608;2022-11-25T04:17:49;99255.81;;;9.54
23992;BMP280;12205;50.600;4.608;2022-11-25T04:20:18;99251.63;;;9.53
23992;BMP280;12205;50.600;4.608;2022-11-25T04:22:51;99249.38;;;9.55
23992;BMP280;12205;50.600;4.608;2022-11-25T04:25:19;99255.50;;;9.59
23992;BMP280;12205;50.600;4.608;2022-11-25T04:27:46;99252.78;;;9.52
23992;BMP280;12205;50.600;4.608;2022-11-25T04:30:17;99248.94;;;9.53
23992;BMP280;12205;50.600;4.608;2022-11-25T04:32:44;99252.78;;;9.52
23992;BMP280;12205;50.600;4.608;2022-11-25T04:35:13;99253.91;;;9.51
23992;BMP280;12205;50.600;4.608;2022-11-25T04:37:46;99248.53;;;9.47
23992;BMP280;12205;50.600;4.608;2022-11-25T04:40:13;99264.53;;;9.47
23992;BMP280;12205;50.600;4.608;2022-11-25T04:42:46;99267.91;;;9.41
23992;BMP280;12205;50.600;4.608;2022-11-25T04:45:17;99269.84;;;9.40
23992;BMP280;12205;50.600;4.608;2022-11-25T04:47:45;99276.66;;;9.38
23992;BMP280;12205;50.600;4.608;2022-11-25T04:50:15;99262.84;;;9.25
23992;BMP280;12205;50.600;4.608;2022-11-25T04:52:54;99288.06;;;9.34
23992;BMP280;12205;50.600;4.608;2022-11-25T04:55:22;99299.47;;;9.35
23992;BMP280;12205;50.600;4.608;2022-11-25T04:57:50;99315.13;;;9.33
23992;BMP280;12205;50.600;4.608;2022-11-25T05:00:20;99317.28;;;9.20
23992;BMP280;12205;50.600;4.608;2022-11-25T05:02:46;99328.25;;;9.15
23992;BMP280;12205;50.600;4.608;2022-11-25T05:05:18;99315.25;;;9.10
23992;BMP280;12205;50.600;4.608;2022-11-25T05:07:45;99327.09;;;9.12
23992;BMP280;12205;50.600;4.608;2022-11-25T05:10:15;99332.78;;;9.11
23992;BMP280;12205;50.600;4.608;2022-11-25T05:12:46;99324.38;;;9.09
23992;BMP280;12205;50.600;4.608;2022-11-25T05:15:16;99329.34;;;9.10
23992;BMP280;12205;50.600;4.608;2022-11-25T05:17:46;99324.38;;;9.09
23992;BMP280;12205;50.600;4.608;2022-11-25T05:20:17;99316.31;;;9.02
23992;BMP280;12205;50.600;4.608;2022-11-25T05:22:44;99309.09;;;9.06
23992;BMP280;12205;50.600;4.608;2022-11-25T05:25:18;99306.09;;;9.07
23992;BMP280;12205;50.600;4.608;2022-11-25T05:28:02;99300.75;;;9.07
23992;BMP280;12205;50.600;4.608;2022-11-25T05:30:29;99296.19;;;9.08
23992;BMP280;12205;50.600;4.608;2022-11-25T05:32:57;99276.41;;;9.09
23992;BMP280;12205;50.600;4.608;2022-11-25T05:35:24;99284.03;;;9.10
23992;BMP280;12205;50.600;4.608;2022-11-25T05:37:51;99272.59;;;9.10
23992;BMP280;12205;50.600;4.608;2022-11-25T05:40:20;99266.53;;;9.13
23992;BMP280;12205;50.600;4.608;2022-11-25T05:42:55;99260.09;;;9.14
23992;BMP280;12205;50.600;4.608;2022-11-25T05:45:22;99264.28;;;9.15
23992;BMP280;12205;50.600;4.608;2022-11-25T05:47:49;99268.09;;;9.14
23992;BMP280;12205;50.600;4.608;2022-11-25T05:50:21;99263.91;;;9.16
23992;BMP280;12205;50.600;4.608;2022-11-25T05:53:02;99275.75;;;9.19
23992;BMP280;12205;50.600;4.608;2022-11-25T05:55:30;99265.09;;;9.19
23992;BMP280;12205;50.600;4.608;2022-11-25T05:58:00;99271.16;;;9.20
23992;BMP280;12205;50.600;4.608;2022-11-25T06:00:28;99278.00;;;9.17
23992;BMP280;12205;50.600;4.608;2022-11-25T06:03:00;99282.53;;;9.13
23992;BMP280;12205;50.600;4.608;2022-11-25T06:05:27;99297.06;;;9.19
23992;BMP280;12205;50.600;4.608;2022-11-25T06:07:54;99304.25;;;9.15
23992;BMP280;12205;50.600;4.608;2022-11-25T06:10:22;99287.00;;;9.02
23992;BMP280;12205;50.600;4.608;2022-11-25T06:12:52;99322.53;;;9.13
23992;BMP280;12205;50.600;4.608;2022-11-25T06:15:19;99322.13;;;9.11
23992;BMP280;12205;50.600;4.608;2022-11-25T06:17:48;99336.88;;;9.05
23992;BMP280;12205;50.600;4.608;2022-11-25T06:20:21;99337.25;;;8.99
23992;BMP280;12205;50.600;4.608;2022-11-25T06:22:48;99347.91;;;8.99
23992;BMP280;12205;50.600;4.608;2022-11-25T06:25:21;99337.94;;;8.93
23992;BMP280;12205;50.600;4.608;2022-11-25T06:27:49;99335.63;;;8.91
23992;BMP280;12205;50.600;4.608;2022-11-25T06:30:19;99339.09;;;8.95
23992;BMP280;12205;50.600;4.608;2022-11-25T06:32:59;99349.34;;;8.93
23992;BMP280;12205;50.600;4.608;2022-11-25T06:35:26;99346.28;;;8.91
23992;BMP280;12205;50.600;4.608;2022-11-25T06:37:57;99348.53;;;8.89
23992;BMP280;12205;50.600;4.608;2022-11-25T06:40:24;99343.94;;;8.86
23992;BMP280;12205;50.600;4.608;2022-11-25T06:42:51;99343.16;;;8.86
23992;BMP280;12205;50.600;4.608;2022-11-25T06:45:20;99359.16;;;8.86
23992;BMP280;12205;50.600;4.608;2022-11-25T06:47:47;99362.91;;;8.81
23992;BMP280;12205;50.600;4.608;2022-11-25T06:50:14;99365.50;;;8.74
23992;BMP280;12205;50.600;4.608;2022-11-25T06:52:41;99360.16;;;8.74
23992;BMP280;12205;50.600;4.608;2022-11-25T06:55:09;99366.56;;;8.69
23992;BMP280;12205;50.600;4.608;2022-11-25T06:57:36;99374.22;;;8.71
23992;BMP280;12205;50.600;4.608;2022-11-25T07:00:04;99369.50;;;8.60
23992;BMP280;12205;50.600;4.608;2022-11-25T07:02:33;99377.81;;;8.55
23992;BMP280;12205;50.600;4.608;2022-11-25T07:05:01;99388.44;;;8.55
23992;BMP280;12205;50.600;4.608;2022-11-25T07:07:28;99389.53;;;8.51
23992;BMP280;12205;50.600;4.608;2022-11-25T07:09:55;99408.13;;;8.47
23992;BMP280;12205;50.600;4.608;2022-11-25T07:12:22;99406.59;;;8.46
23992;BMP280;12205;50.600;4.608;2022-11-25T07:14:50;99422.56;;;8.46
23992;BMP280;12205;50.600;4.608;2022-11-25T07:17:17;99422.13;;;8.40
23992;BMP280;12205;50.600;4.608;2022-11-25T07:19:45;99426.66;;;8.40
23992;BMP280;12205;50.600;4.608;2022-11-25T07:22:12;99432.69;;;8.37
23992;BMP280;12205;50.600;4.608;2022-11-25T07:24:39;99428.47;;;8.36
23992;BMP280;12205;50.600;4.608;2022-11-25T07:27:06;99431.13;;;8.32
23992;BMP280;12205;50.600;4.608;2022-11-25T07:29:34;99425.41;;;8.34
23992;BMP280;12205;50.600;4.608;2022-11-25T07:32:02;99428.56;;;8.39
23992;BMP280;12205;50.600;4.608;2022-11-25T07:34:29;99441.88;;;8.39
23992;BMP280;12205;50.600;4.608;2022-11-25T07:36:58;99455.94;;;8.40
23992;BMP280;12205;50.600;4.608;2022-11-25T07:39:25;99465.06;;;8.39
23992;BMP280;12205;50.600;4.608;2022-11-25T07:41:53;99481.03;;;8.39
23992;BMP280;12205;50.600;4.608;2022-11-25T07:44:21;99484.03;;;8.37
23992;BMP280;12205;50.600;4.608;2022-11-25T07:46:51;99475.72;;;8.39
23992;BMP280;12205;50.600;4.608;2022-11-25T07:49:21;99477.94;;;8.37
23992;BMP280;12205;50.600;4.608;2022-11-25T07:51:51;99473.34;;;8.34
23992;BMP280;12205;50.600;4.608;2022-11-25T07:54:22;99474.16;;;8.38
23992;BMP280;12205;50.600;4.608;2022-11-25T07:56:50;99473.47;;;8.41
23992;BMP280;12205;50.600;4.608;2022-11-25T07:59:19;99472.72;;;8.44
23992;BMP280;12205;50.600;4.608;2022-11-25T08:01:48;99481.97;;;8.50
23992;BMP280;12205;50.600;4.608;2022-11-25T08:04:16;99493.41;;;8.51
23992;BMP280;12205;50.600;4.608;2022-11-25T08:06:46;99489.63;;;8.52
23992;BMP280;12205;50.600;4.608;2022-11-25T08:09:16;99500.72;;;8.57
23992;BMP280;12205;50.600;4.608;2022-11-25T08:11:46;99511.03;;;8.59
23992;BMP280;12205;50.600;4.608;2022-11-25T08:14:14;99501.13;;;8.59
23992;BMP280;12205;50.600;4.608;2022-11-25T08:16:42;99511.84;;;8.63
23992;BMP280;12205;50.600;4.608;2022-11-25T08:19:12;99512.25;;;8.65
23992;BMP280;12205;50.600;4.608;2022-11-25T08:21:41;99513.41;;;8.64
23992;BMP280;12205;50.600;4.608;2022-11-25T08:24:12;99509.91;;;8.60
23992;BMP280;12205;50.600;4.608;2022-11-25T08:26:41;99518.72;;;8.64
23992;BMP280;12205;50.600;4.608;2022-11-25T08:29:12;99516.41;;;8.62
23992;BMP280;12205;50.600;4.608;2022-11-25T08:31:40;99505.03;;;8.66
23992;BMP280;12205;50.600;4.608;2022-11-25T08:34:10;99514.97;;;8.69
23992;BMP280;12205;50.600;4.608;2022-11-25T08:36:42;99514.97;;;8.69
23992;BMP280;12205;50.600;4.608;2022-11-25T08:39:09;99519.75;;;8.83
23992;BMP280;12205;50.600;4.608;2022-11-25T08:41:37;99520.19;;;8.88
23992;BMP280;12205;50.600;4.608;2022-11-25T08:44:06;99535.16;;;8.96
23992;BMP280;12205;50.600;4.608;2022-11-25T08:46:36;99532.94;;;8.98
23992;BMP280;12205;50.600;4.608;2022-11-25T08:49:06;99538.97;;;8.95
23992;BMP280;12205;50.600;4.608;2022-11-25T08:51:36;99562.34;;;9.06
23992;BMP280;12205;50.600;4.608;2022-11-25T08:54:04;99586.44;;;9.13
23992;BMP280;12205;50.600;4.608;2022-11-25T08:56:32;99594.09;;;9.14
23992;BMP280;12205;50.600;4.608;2022-11-25T08:58:59;99604.03;;;9.17
23992;BMP280;12205;50.600;4.608;2022-11-25T09:01:26;99598.69;;;9.17
23992;BMP280;12205;50.600;4.608;2022-11-25T09:03:56;99617.84;;;9.23
23992;BMP280;12205;50.600;4.608;2022-11-25T09:06:25;99611.00;;;9.26
23992;BMP280;12205;50.600;4.608;2022-11-25T09:08:55;99630.00;;;9.24
23992;BMP280;12205;50.600;4.608;2022-11-25T09:11:22;99614.00;;;9.24
23992;BMP280;12205;50.600;4.608;2022-11-25T09:13:50;99633.09;;;9.26
23992;BMP280;12205;50.600;4.608;2022-11-25T09:16:17;99624.75;;;9.28
23992;BMP280;12205;50.600;4.608;2022-11-25T09:18:45;99641.94;;;9.30
23992;BMP280;12205;50.600;4.608;2022-11-25T09:21:16;99640.81;;;9.31
23992;BMP280;12205;50.600;4.608;2022-11-25T09:23:44;99656.97;;;9.42
23992;BMP280;12205;50.600;4.608;2022-11-25T09:26:22;99667.66;;;9.46
23992;BMP280;12205;50.600;4.608;2022-11-25T09:28:49;99673.78;;;9.46
23992;BMP280;12205;50.600;4.608;2022-11-25T09:31:17;99674.56;;;9.47
23992;BMP280;12205;50.600;4.608;2022-11-25T09:33:45;99688.41;;;9.56
23992;BMP280;12205;50.600;4.608;2022-11-25T09:36:16;99678.56;;;9.60
23992;BMP280;12205;50.600;4.608;2022-11-25T09:38:43;99690.75;;;9.61
23992;BMP280;12205;50.600;4.608;2022-11-25T09:41:27;99687.69;;;9.59
23992;BMP280;12205;50.600;4.608;2022-11-25T09:44:33;99708.38;;;9.66
23992;BMP280;12205;50.600;4.608;2022-11-25T09:47:34;99712.91;;;9.65
23992;BMP280;12205;50.600;4.608;2022-11-25T09:50:19;99700.09;;;9.75
23992;BMP280;12205;50.600;4.608;2022-11-25T09:53:01;99706.66;;;9.81
23992;BMP280;12205;50.600;4.608;2022-11-25T09:55:40;99716.25;;;9.85
23992;BMP280;12205;50.600;4.608;2022-11-25T09:58:30;99729.34;;;9.94
23992;BMP280;12205;50.600;4.608;2022-11-25T10:01:00;99729.53;;;10.08
23992;BMP280;12205;50.600;4.608;2022-11-25T10:03:38;99752.84;;;10.12
23992;BMP280;12205;50.600;4.608;2022-11-25T10:06:14;99768.53;;;10.17
23992;BMP280;12205;50.600;4.608;2022-11-25T10:08:47;99767.00;;;10.16
23992;BMP280;12205;50.600;4.608;2022-11-25T10:11:29;99770.81;;;10.15
23992;BMP280;12205;50.600;4.608;2022-11-25T10:14:04;99777.31;;;10.17
23992;BMP280;12205;50.600;4.608;2022-11-25T10:16:48;99788.06;;;10.21
23992;BMP280;12205;50.600;4.608;2022-11-25T10:19:38;99798.75;;;10.21
23992;BMP280;12205;50.600;4.608;2022-11-25T10:22:25;99800.41;;;10.33
23992;BMP280;12205;50.600;4.608;2022-11-25T10:24:59;99815.00;;;10.39
23992;BMP280;12205;50.600;4.608;2022-11-25T10:27:43;99829.22;;;10.46
23992;BMP280;12205;50.600;4.608;2022-11-25T10:30:17;99836.03;;;10.44
23992;BMP280;12205;50.600;4.608;2022-11-25T10:32:50;99858.72;;;10.54
23992;BMP280;12205;50.600;4.608;2022-11-25T10:35:30;99880.41;;;10.49
23992;BMP280;12205;50.600;4.608;2022-11-25T10:38:02;99887.66;;;10.52
23992;BMP280;12205;50.600;4.608;2022-11-25T10:40:32;99905.25;;;10.53
23992;BMP280;12205;50.600;4.608;2022-11-25T10:43:09;99911.81;;;10.59
23992;BMP280;12205;50.600;4.608;2022-11-25T10:45:58;99944.53;;;10.49
23992;BMP280;12205;50.600;4.608;2022-11-25T10:48:51;99959.28;;;10.42
23992;BMP280;12205;50.600;4.608;2022-11-25T10:51:37;99966.69;;;10.49
23992;BMP280;12205;50.600;4.608;2022-11-25T10:54:13;99954.06;;;10.50
23992;BMP280;12205;50.600;4.608;2022-11-25T10:56:50;99954.47;;;10.52
23992;BMP280;12205;50.600;4.608;2022-11-25T10:59:27;99959.03;;;10.48
23992;BMP280;12205;50.600;4.608;2022-11-25T11:02:15;99971.25;;;10.49
23992;BMP280;12205;50.600;4.608;2022-11-25T11:04:55;99974.31;;;10.51
23992;BMP280;12205;50.600;4.608;2022-11-25T11:07:25;99984.63;;;10.52
23992;BMP280;12205;50.600;4.608;2022-11-25T11:09:53;99972.84;;;10.53
23992;BMP280;12205;50.600;4.608;2022-11-25T11:12:24;99968.28;;;10.54
23992;BMP280;12205;50.600;4.608;2022-11-25T11:15:13;99946.72;;;10.70
23992;BMP280;12205;50.600;4.608;2022-11-25T11:17:41;99984.59;;;10.75
23992;BMP280;12205;50.600;4.608;2022-11-25T11:20:21;100026.56;;;10.71
23992;BMP280;12205;50.600;4.608;2022-11-25T11:22:56;100024.41;;;10.80
23992;BMP280;12205;50.600;4.608;2022-11-25T11:25:34;100025.25;;;10.88
23992;BMP280;12205;50.600;4.608;2022-11-25T11:28:26;100037.56;;;10.93
23992;BMP280;12205;50.600;4.608;2022-11-25T11:30:57;100056.00;;;10.98
23992;BMP280;12205;50.600;4.608;2022-11-25T11:33:35;100055.91;;;10.94
23992;BMP280;12205;50.600;4.608;2022-11-25T11:36:22;100018.97;;;10.73
23992;BMP280;12205;50.600;4.608;2022-11-25T11:39:04;100069.03;;;11.03
23992;BMP280;12205;50.600;4.608;2022-11-25T11:41:42;100071.78;;;11.07
23992;BMP280;12205;50.600;4.608;2022-11-25T11:44:23;100069.84;;;11.07
23992;BMP280;12205;50.600;4.608;2022-11-25T11:47:13;100056.25;;;11.19
23992;BMP280;12205;50.600;4.608;2022-11-25T11:50:08;100067.88;;;11.31
23992;BMP280;12205;50.600;4.608;2022-11-25T11:52:55;100098.47;;;11.33
23992;BMP280;12205;50.600;4.608;2022-11-25T11:56:05;100102.34;;;11.36
23992;BMP280;12205;50.600;4.608;2022-11-25T11:58:51;100120.75;;;11.41
23992;BMP280;12205;50.600;4.608;2022-11-25T12:01:41;100142.91;;;11.38
23992;BMP280;12205;50.600;4.608;2022-11-25T12:04:18;100122.75;;;11.48
23992;BMP280;12205;50.600;4.608;2022-11-25T12:07:01;100155.63;;;11.48
23992;BMP280;12205;50.600;4.608;2022-11-25T12:09:36;100153.03;;;11.55
23992;BMP280;12205;50.600;4.608;2022-11-25T12:12:13;100153.25;;;11.70
23992;BMP280;12205;50.600;4.608;2022-11-25T12:14:49;100180.84;;;11.74
23992;BMP280;12205;50.600;4.608;2022-11-25T12:17:26;100183.28;;;11.86
23992;BMP280;12205;50.600;4.608;2022-11-25T12:20:00;100190.28;;;11.94
23992;BMP280;12205;50.600;4.608;2022-11-25T12:22:36;100207.19;;;12.02
23992;BMP280;12205;50.600;4.608;2022-11-25T12:25:12;100244.53;;;12.18
23992;BMP280;12205;50.600;4.608;2022-11-25T12:27:44;100245.66;;;12.51
23992;BMP280;12205;50.600;4.608;2022-11-25T12:30:17;100261.78;;;12.96
23992;BMP280;12205;50.600;4.608;2022-11-25T12:32:57;100309.38;;;13.51
23992;BMP280;12205;50.600;4.608;2022-11-25T12:35:42;100327.06;;;14.25
23992;BMP280;12205;50.600;4.608;2022-11-25T12:38:24;100354.19;;;15.22
23992;BMP280;12205;50.600;4.608;2022-11-25T12:41:00;100373.31;;;16.03
23992;BMP280;12205;50.600;4.608;2022-11-25T12:43:38;100381.66;;;16.34
23992;BMP280;12205;50.600;4.608;2022-11-25T12:46:21;100393.72;;;16.89
23992;BMP280;12205;50.600;4.608;2022-11-25T12:48:53;100396.31;;;17.48
23992;BMP280;12205;50.600;4.608;2022-11-25T12:52:18;100404.13;;;17.81
23992;BMP280;12205;50.600;4.608;2022-11-25T12:55:08;100421.28;;;18.32
23992;BMP280;12205;50.600;4.608;2022-11-25T12:58:23;100413.88;;;18.36
23992;BMP280;12205;50.600;4.608;2022-11-25T13:01:21;100419.09;;;18.51
23992;BMP280;12205;50.600;4.608;2022-11-25T13:04:18;100412.19;;;18.50
23992;BMP280;12205;50.600;4.608;2022-11-25T13:07:23;100428.69;;;18.86
23992;BMP280;12205;50.600;4.608;2022-11-25T13:10:31;100420.38;;;18.70
23992;BMP280;12205;50.600;4.608;2022-11-25T13:13:29;100426.38;;;18.26
23992;BMP280;12205;50.600;4.608;2022-11-25T13:16:00;100442.72;;;18.19
23992;BMP280;12205;50.600;4.608;2022-11-25T13:18:32;100430.72;;;17.86
23992;BMP280;12205;50.600;4.608;2022-11-25T13:21:08;100451.47;;;18.00
23992;BMP280;12205;50.600;4.608;2022-11-25T13:23:48;100452.72;;;18.26
23992;BMP280;12205;50.600;4.608;2022-11-25T13:26:49;100454.75;;;18.15
23992;BMP280;12205;50.600;4.608;2022-11-25T13:29:51;100458.56;;;18.21
23992;BMP280;12205;50.600;4.608;2022-11-25T13:32:27;100466.16;;;18.33
23992;BMP280;12205;50.600;4.608;2022-11-25T13:35:48;100471.13;;;18.65
23992;BMP280;12205;50.600;4.608;2022-11-25T13:38:56;100465.03;;;18.27
23992;BMP280;12205;50.600;4.608;2022-11-25T13:41:36;100478.59;;;17.44
23992;BMP280;12205;50.600;4.608;2022-11-25T13:44:29;100481.09;;;16.39
23992;BMP280;12205;50.600;4.608;2022-11-25T13:49:52;100480.78;;;15.29
23992;BMP280;12205;50.600;4.608;2022-11-25T13:52:30;100484.94;;;14.94
23992;BMP280;12205;50.600;4.608;2022-11-25T13:55:07;100469.00;;;14.61
23992;BMP280;12205;50.600;4.608;2022-11-25T13:57:38;100469.19;;;14.23
23992;BMP280;12205;50.600;4.608;2022-11-25T14:00:40;100465.94;;;13.96
23992;BMP280;12205;50.600;4.608;2022-11-25T14:03:53;100448.78;;;13.63
23992;BMP280;12205;50.600;4.608;2022-11-25T14:06:45;100443.19;;;13.41
23992;BMP280;12205;50.600;4.608;2022-11-25T14:09:43;100443.91;;;13.35
23992;BMP280;12205;50.600;4.608;2022-11-25T14:12:42;100433.44;;;13.22
23992;BMP280;12205;50.600;4.608;2022-11-25T14:15:42;100438.00;;;13.18
23992;BMP280;12205;50.600;4.608;2022-11-25T14:18:31;100431.09;;;13.21
23992;BMP280;12205;50.600;4.608;2022-11-25T14:21:15;100433.00;;;13.17
23992;BMP280;12205;50.600;4.608;2022-11-25T14:24:03;100425.28;;;13.12
23992;BMP280;12205;50.600;4.608;2022-11-25T14:26:34;100430.66;;;13.15
23992;BMP280;12205;50.600;4.608;2022-11-25T14:29:12;100418.28;;;13.03
23992;BMP280;12205;50.600;4.608;2022-11-25T14:31:48;100416.69;;;12.99
23992;BMP280;12205;50.600;4.608;2022-11-25T14:34:22;100418.22;;;12.96
23992;BMP280;12205;50.600;4.608;2022-11-25T14:36:55;100429.63;;;12.93
23992;BMP280;12205;50.600;4.608;2022-11-25T14:39:31;100424.09;;;12.79
23992;BMP280;12205;50.600;4.608;2022-11-25T14:42:05;100415.59;;;12.69
23992;BMP280;12205;50.600;4.608;2022-11-25T14:44:44;100425.47;;;12.65
23992;BMP280;12205;50.600;4.608;2022-11-25T14:47:12;100428.47;;;12.57
23992;BMP280;12205;50.600;4.608;2022-11-25T14:49:48;100407.59;;;12.43
23992;BMP280;12205;50.600;4.608;2022-11-25T14:52:24;100418.69;;;12.41
23992;BMP280;12205;50.600;4.608;2022-11-25T14:54:54;100413.63;;;12.36